Time;durP1;ratioP1;P1;durP2;ratioP2;P2;SDS_P1;SDS_P2;PMS_P1;PMS_P2;Temp;Humidity;BMP_temperature;BMP_pressure;BME280_temperature;BME280_humidity;BME280_pressure;Samples;Min_cycle;Max_cycle;Signal;HPM_P1;HPM_P2
2021/09/08 00:01:08;;;;;;;7.45;2.00;;;;;;;12.56;97.38;99921.44;5085022;28;20464;-53
2021/09/08 00:03:34;;;;;;;2.78;1.80;;;;;;;12.55;97.05;99922.34;5053325;28;20044;-51
2021/09/08 00:05:59;;;;;;;2.40;1.48;;;;;;;12.53;96.57;99919.78;5079420;28;20079;-49
2021/09/08 00:08:25;;;;;;;2.78;1.77;;;;;;;12.53;96.90;99918.94;5070252;28;20089;-51
2021/09/08 00:10:51;;;;;;;3.15;1.63;;;;;;;12.54;96.37;99918.91;5070844;28;20388;-51
2021/09/08 00:13:17;;;;;;;3.78;1.73;;;;;;;12.39;96.44;99896.00;5070470;28;20040;-54
2021/09/08 00:15:43;;;;;;;2.90;1.88;;;;;;;12.54;96.50;99931.94;5071348;28;20469;-51
2021/09/08 00:18:09;;;;;;;4.30;1.95;;;;;;;12.50;96.30;99919.06;5071568;28;20036;-50
2021/09/08 00:20:35;;;;;;;3.47;1.85;;;;;;;12.43;95.38;99909.78;5071620;28;20471;-49
2021/09/08 00:23:00;;;;;;;2.83;1.80;;;;;;;12.49;95.85;99918.22;5070548;28;20090;-51
2021/09/08 00:25:26;;;;;;;3.65;1.55;;;;;;;12.48;95.34;99918.28;5070857;28;20529;-52
2021/09/08 00:27:52;;;;;;;2.67;1.65;;;;;;;12.48;95.67;99921.72;5070214;28;20040;-49
2021/09/08 00:30:17;;;;;;;2.95;1.63;;;;;;;12.46;95.74;99914.84;5070298;28;20037;-53
2021/09/08 00:32:44;;;;;;;4.22;2.00;;;;;;;12.45;94.82;99910.56;5071508;28;20036;-52
2021/09/08 00:35:12;;;;;;;3.53;1.65;;;;;;;12.46;95.04;99918.31;5070876;28;20048;-54
2021/09/08 00:37:40;;;;;;;2.72;1.50;;;;;;;12.44;94.45;99914.09;5078057;28;20132;-48
2021/09/08 00:40:08;;;;;;;3.53;1.95;;;;;;;12.44;95.00;99914.94;5070374;28;20487;-52
2021/09/08 00:42:35;;;;;;;3.05;1.77;;;;;;;12.43;94.67;99917.59;5052018;28;20101;-52
2021/09/08 00:45:05;;;;;;;2.17;1.83;;;;;;;12.46;94.11;99907.03;5085596;28;20059;-53
2021/09/08 00:47:31;;;;;;;4.05;1.33;;;;;;;12.45;93.19;99911.44;5070850;28;20451;-51
2021/09/08 00:49:57;;;;;;;5.13;1.77;;;;;;;12.44;92.74;99904.50;5086703;28;20048;-52
2021/09/08 00:52:24;;;;;;;4.25;1.63;;;;;;;12.37;92.78;99889.16;5086410;28;20041;-53
2021/09/08 00:54:52;;;;;;;3.95;1.70;;;;;;;12.35;92.21;99891.84;5069801;28;20121;-53
2021/09/08 00:57:20;;;;;;;3.78;1.90;;;;;;;12.49;91.98;99904.31;5086233;28;20044;-51
2021/09/08 00:59:48;;;;;;;3.15;1.55;;;;;;;12.48;91.83;99893.03;5070273;28;20167;-52
2021/09/08 01:02:15;;;;;;;5.85;1.95;;;;;;;12.47;91.24;99899.16;5070218;28;20032;-53
2021/09/08 01:04:43;;;;;;;11.70;2.10;;;;;;;12.49;91.29;99912.16;5069914;28;20040;-49
2021/09/08 01:07:09;;;;;;;4.20;2.03;;;;;;;12.41;91.62;99901.16;5070332;28;20036;-51
2021/09/08 01:09:37;;;;;;;2.23;1.57;;;;;;;12.46;91.30;99900.06;5083843;28;20446;-48
2021/09/08 01:12:07;;;;;;;3.65;1.70;;;;;;;12.48;90.97;99898.25;5069940;28;20225;-52
2021/09/08 01:14:33;;;;;;;3.13;1.58;;;;;;;12.50;90.95;99898.22;5052475;28;20067;-53
2021/09/08 01:16:59;;;;;;;2.55;1.40;;;;;;;12.50;90.05;99896.44;5070570;28;20431;-55
2021/09/08 01:19:26;;;;;;;6.75;1.83;;;;;;;12.51;90.04;99905.94;5070138;28;20093;-50
2021/09/08 01:21:52;;;;;;;3.53;1.40;;;;;;;12.50;89.36;99898.22;5091517;28;20040;-52
2021/09/08 01:24:18;;;;;;;3.78;1.58;;;;;;;12.49;89.91;99899.97;5071559;28;20040;-53
2021/09/08 01:26:46;;;;;;;3.25;1.63;;;;;;;12.47;90.29;99896.56;5086137;28;20491;-52
2021/09/08 01:29:12;;;;;;;3.95;1.73;;;;;;;12.44;90.23;99901.06;5080920;28;20036;-52
2021/09/08 01:31:38;;;;;;;3.92;1.80;;;;;;;12.43;90.72;99901.94;5051203;28;20530;-54
2021/09/08 01:34:04;;;;;;;4.18;1.65;;;;;;;12.41;90.59;99903.75;5079737;28;20048;-52
2021/09/08 01:36:37;;;;;;;2.80;1.55;;;;;;;12.37;90.72;99904.78;5069450;28;20040;-50
2021/09/08 01:39:03;;;;;;;3.97;1.90;;;;;;;12.39;90.69;99903.84;5069137;28;20155;-50
2021/09/08 01:41:29;;;;;;;3.78;1.45;;;;;;;12.37;90.42;99894.34;5073963;28;20515;-52
2021/09/08 01:43:54;;;;;;;3.13;1.80;;;;;;;12.34;90.21;99884.91;5069199;28;20044;-52
2021/09/08 01:46:21;;;;;;;3.28;1.80;;;;;;;12.40;90.33;99895.13;5069527;28;20028;-52
2021/09/08 01:48:48;;;;;;;3.47;1.63;;;;;;;12.39;90.00;99892.56;5069897;28;20044;-49
2021/09/08 01:51:14;;;;;;;2.92;1.67;;;;;;;12.41;90.31;99891.56;5069302;28;20109;-51
2021/09/08 01:53:40;;;;;;;4.90;1.73;;;;;;;12.41;91.12;99894.19;5071227;28;20044;-50
2021/09/08 01:56:06;;;;;;;4.13;1.70;;;;;;;12.37;92.44;99903.03;5069037;28;20036;-52
2021/09/08 01:58:32;;;;;;;2.55;1.85;;;;;;;12.30;93.69;99899.81;5069196;28;20047;-49
2021/09/08 02:01:01;;;;;;;4.60;1.90;;;;;;;12.29;93.90;99897.28;5069997;28;20043;-51
2021/09/08 02:03:27;;;;;;;5.72;1.70;;;;;;;12.24;94.72;99894.00;5069427;28;20479;-48
2021/09/08 02:05:53;;;;;;;6.80;2.25;;;;;;;12.22;94.63;99911.44;5069219;28;20123;-52
2021/09/08 02:08:18;;;;;;;5.25;2.38;;;;;;;12.24;94.58;99902.66;5069737;28;20068;-52
2021/09/08 02:10:44;;;;;;;3.15;1.90;;;;;;;12.23;94.82;99897.50;5067972;28;20052;-52
2021/09/08 02:13:11;;;;;;;3.00;1.50;;;;;;;12.25;94.68;99900.88;5053992;28;20056;-52
2021/09/08 02:15:37;;;;;;;5.47;1.75;;;;;;;12.24;94.51;99894.00;5069365;28;20040;-53
2021/09/08 02:18:03;;;;;;;7.53;2.25;;;;;;;12.26;94.72;99894.75;5069317;28;20067;-51
2021/09/08 02:20:29;;;;;;;4.68;2.28;;;;;;;12.25;95.15;99896.53;5064732;28;20071;-50
2021/09/08 02:22:54;;;;;;;4.70;1.90;;;;;;;12.24;95.33;99894.84;5083914;28;20079;-53
2021/09/08 02:25:20;;;;;;;2.72;1.77;;;;;;;12.21;95.39;99891.47;5068830;28;20503;-51
2021/09/08 02:27:46;;;;;;;4.32;1.80;;;;;;;12.18;95.76;99886.41;5079349;28;20144;-53
2021/09/08 02:30:13;;;;;;;3.13;1.88;;;;;;;12.17;96.07;99877.72;5068621;28;20047;-49
2021/09/08 02:32:38;;;;;;;7.45;1.70;;;;;;;12.16;96.64;99875.16;5085206;28;20060;-48
2021/09/08 02:35:05;;;;;;;3.42;1.60;;;;;;;12.10;98.28;99867.56;5053511;28;20079;-49
2021/09/08 02:37:31;;;;;;;3.25;2.05;;;;;;;11.99;98.49;99864.50;5068288;28;20043;-51
2021/09/08 02:39:57;;;;;;;2.33;1.63;;;;;;;12.02;98.42;99880.91;5069131;28;20048;-48
2021/09/08 02:42:23;;;;;;;4.07;1.92;;;;;;;12.01;98.98;99862.72;5067682;28;20047;-49
2021/09/08 02:44:49;;;;;;;4.05;2.10;;;;;;;11.94;99.58;99863.84;5068376;28;20466;-50
2021/09/08 02:47:16;;;;;;;4.82;2.05;;;;;;;11.79;100.00;99847.03;5069018;28;20086;-51
2021/09/08 02:49:42;;;;;;;4.30;1.90;;;;;;;11.78;100.00;99858.34;5084933;28;20086;-52
2021/09/08 02:52:08;;;;;;;4.38;1.88;;;;;;;11.78;100.00;99866.16;5068920;28;20499;-50
2021/09/08 02:54:35;;;;;;;2.88;1.90;;;;;;;11.72;100.00;99875.00;5068764;28;20055;-53
2021/09/08 02:57:01;;;;;;;7.18;2.28;;;;;;;11.72;100.00;99872.41;5074960;28;20048;-52
2021/09/08 02:59:27;;;;;;;2.78;1.75;;;;;;;11.72;100.00;99866.38;5068752;28;20400;-51
2021/09/08 03:01:53;;;;;;;3.00;1.65;;;;;;;11.71;100.00;99869.88;5069025;28;20074;-51
2021/09/08 03:04:19;;;;;;;7.40;2.40;;;;;;;11.72;100.00;99867.19;5078452;28;20094;-52
2021/09/08 03:06:47;;;;;;;7.18;2.10;;;;;;;11.71;100.00;99867.28;5068623;28;20044;-50
2021/09/08 03:09:14;;;;;;;4.20;1.98;;;;;;;11.70;100.00;99866.41;5069061;28;20044;-52
2021/09/08 03:11:40;;;;;;;3.63;1.90;;;;;;;11.68;100.00;99864.75;5072828;28;20048;-51
2021/09/08 03:14:06;;;;;;;5.10;1.98;;;;;;;11.70;100.00;99873.38;5068115;28;20139;-52
2021/09/08 03:16:32;;;;;;;2.53;1.80;;;;;;;11.66;100.00;99862.22;5095059;28;20122;-53
2021/09/08 03:18:57;;;;;;;3.92;1.90;;;;;;;11.61;100.00;99848.53;5113558;28;20047;-54
2021/09/08 03:21:23;;;;;;;5.05;1.90;;;;;;;11.64;100.00;99860.56;5113194;28;20145;-50
2021/09/08 03:23:49;;;;;;;3.47;1.88;;;;;;;11.70;100.00;99870.78;5109647;28;20066;-51
2021/09/08 03:26:15;;;;;;;4.32;2.10;;;;;;;11.69;100.00;99859.50;5054238;28;20036;-51
2021/09/08 03:28:40;;;;;;;3.85;1.95;;;;;;;11.63;100.00;99858.88;5058254;28;20051;-53
2021/09/08 03:31:06;;;;;;;4.05;1.70;;;;;;;11.64;99.95;99848.41;5057060;28;20131;-51
2021/09/08 03:33:32;;;;;;;4.22;1.90;;;;;;;11.72;99.37;99858.56;5072444;28;20127;-53
2021/09/08 03:35:58;;;;;;;2.47;1.63;;;;;;;11.72;99.05;99861.97;5071802;28;20480;-51
2021/09/08 03:38:23;;;;;;;2.92;1.77;;;;;;;11.72;98.82;99858.56;5071913;28;20040;-49
2021/09/08 03:40:49;;;;;;;3.65;2.10;;;;;;;11.72;98.88;99861.97;5072276;28;20424;-52
2021/09/08 03:43:15;;;;;;;3.00;1.88;;;;;;;11.66;98.14;99845.75;5071608;28;20045;-53
2021/09/08 03:45:40;;;;;;;5.18;1.90;;;;;;;11.74;97.74;99859.38;5085885;28;20048;-53
2021/09/08 03:48:06;;;;;;;4.78;1.83;;;;;;;11.66;96.84;99840.53;5071864;28;20043;-51
2021/09/08 03:50:32;;;;;;;4.18;2.17;;;;;;;11.78;97.13;99866.16;5053806;28;20048;-53
2021/09/08 03:52:58;;;;;;;4.10;2.22;;;;;;;11.73;97.32;99860.25;5071936;28;20067;-51
2021/09/08 03:55:23;;;;;;;3.03;1.90;;;;;;;11.76;97.41;99860.16;5083246;28;20084;-50
2021/09/08 03:57:49;;;;;;;7.78;2.60;;;;;;;11.69;96.82;99840.41;5054645;28;20032;-49
2021/09/08 04:00:15;;;;;;;7.05;2.38;;;;;;;11.78;96.68;99859.19;5070950;28;20131;-54
2021/09/08 04:02:42;;;;;;;4.93;2.40;;;;;;;11.79;96.31;99854.84;5069783;28;20044;-52
2021/09/08 04:05:10;;;;;;;4.90;2.25;;;;;;;11.82;95.58;99862.56;5070637;28;20530;-52
2021/09/08 04:07:36;;;;;;;8.27;2.63;;;;;;;11.82;95.73;99853.00;5071157;28;20049;-50
2021/09/08 04:10:01;;;;;;;3.63;2.08;;;;;;;11.87;94.94;99858.88;5090448;28;20052;-50
2021/09/08 04:12:28;;;;;;;3.97;2.22;;;;;;;11.91;95.19;99859.59;5076431;28;20072;-56
2021/09/08 04:14:54;;;;;;;4.65;2.15;;;;;;;11.94;94.92;99869.03;5052748;28;20082;-53
2021/09/08 04:17:20;;;;;;;4.35;2.45;;;;;;;11.90;94.13;99860.50;5070027;28;20051;-54
2021/09/08 04:19:46;;;;;;;5.70;2.28;;;;;;;11.92;93.84;99857.84;5069902;28;20063;-53
2021/09/08 04:22:11;;;;;;;3.85;1.65;;;;;;;11.80;93.08;99839.16;5070815;28;20422;-53
2021/09/08 04:24:37;;;;;;;2.88;2.10;;;;;;;11.96;93.53;99856.81;5086773;28;20404;-53
2021/09/08 04:27:03;;;;;;;4.15;2.38;;;;;;;12.00;92.93;99855.78;5070809;28;20511;-56
2021/09/08 04:29:29;;;;;;;3.55;1.70;;;;;;;11.98;91.94;99855.03;5044935;28;20039;-52
2021/09/08 04:31:54;;;;;;;4.80;2.22;;;;;;;11.99;91.61;99856.69;5070966;28;20036;-52
2021/09/08 04:34:20;;;;;;;3.83;2.33;;;;;;;12.02;91.57;99861.81;5053165;28;20069;-50
2021/09/08 04:36:46;;;;;;;5.63;2.60;;;;;;;12.03;91.27;99859.16;5070635;28;20036;-51
2021/09/08 04:39:11;;;;;;;5.05;2.60;;;;;;;12.04;91.38;99850.41;5059129;28;20126;-50
2021/09/08 04:41:37;;;;;;;3.25;2.28;;;;;;;12.10;90.89;99852.78;5083438;28;20511;-52
2021/09/08 04:44:03;;;;;;;5.97;2.28;;;;;;;12.12;90.08;99851.00;5070136;28;20040;-54
2021/09/08 04:46:29;;;;;;;5.70;2.20;;;;;;;12.14;89.82;99843.94;5064343;28;20063;-52
2021/09/08 04:48:55;;;;;;;2.95;2.17;;;;;;;12.15;88.72;99848.25;5068953;28;20117;-52
2021/09/08 04:51:21;;;;;;;4.72;1.98;;;;;;;12.15;88.65;99850.00;5070044;28;20127;-55
2021/09/08 04:53:47;;;;;;;4.22;2.25;;;;;;;12.12;88.85;99848.38;5062783;28;20036;-51
2021/09/08 04:56:13;;;;;;;4.50;2.15;;;;;;;12.05;88.25;99833.03;5071580;28;20504;-53
2021/09/08 04:58:39;;;;;;;3.38;2.10;;;;;;;12.21;88.05;99848.03;5052196;28;20044;-50
2021/09/08 05:01:04;;;;;;;3.58;2.20;;;;;;;12.16;87.72;99826.50;5069808;28;20096;-52
2021/09/08 05:03:32;;;;;;;5.25;2.33;;;;;;;12.36;87.07;99851.78;5078269;28;20407;-50
2021/09/08 05:05:58;;;;;;;2.22;1.80;;;;;;;12.35;85.92;99839.69;5072096;28;20059;-53
2021/09/08 05:08:24;;;;;;;6.28;2.20;;;;;;;12.51;86.09;99847.75;5069265;28;20500;-53
2021/09/08 05:10:49;;;;;;;4.22;2.10;;;;;;;12.56;85.04;99849.25;5051292;28;20052;-54
2021/09/08 05:13:15;;;;;;;4.75;1.98;;;;;;;12.58;84.66;99844.81;5071072;28;20082;-51
2021/09/08 05:15:41;;;;;;;4.95;2.22;;;;;;;12.63;84.30;99837.66;5087802;28;20039;-51
2021/09/08 05:18:06;;;;;;;6.32;1.70;;;;;;;12.67;83.57;99834.00;5068275;28;20122;-52
2021/09/08 05:20:32;;;;;;;3.80;2.00;;;;;;;12.76;82.74;99834.56;5078065;28;20036;-52
2021/09/08 05:22:58;;;;;;;2.35;1.73;;;;;;;12.80;81.67;99831.78;5082380;28;20027;-50
2021/09/08 05:25:23;;;;;;;3.25;2.03;;;;;;;12.94;80.94;99837.25;5069095;28;20090;-50
2021/09/08 05:27:49;;;;;;;2.50;1.77;;;;;;;13.10;80.15;99840.06;5077619;28;20048;-52
2021/09/08 05:30:15;;;;;;;3.83;2.10;;;;;;;13.15;79.58;99838.16;5054268;28;20044;-50
2021/09/08 05:32:41;;;;;;;2.95;1.10;;;;;;;13.24;78.40;99836.94;5072275;28;20036;-54
2021/09/08 05:35:07;;;;;;;3.35;1.80;;;;;;;13.28;77.90;99839.34;5075696;28;20036;-50
2021/09/08 05:37:32;;;;;;;2.22;1.65;;;;;;;13.28;76.94;99813.22;5084750;28;20040;-53
2021/09/08 05:39:58;;;;;;;3.85;1.60;;;;;;;13.57;76.80;99848.50;5069025;28;20538;-49
2021/09/08 05:42:24;;;;;;;3.40;1.80;;;;;;;13.73;76.31;99841.69;5081077;28;20039;-49
2021/09/08 05:44:49;;;;;;;3.17;1.73;;;;;;;13.74;75.12;99837.31;5089798;28;20122;-53
2021/09/08 05:47:15;;;;;;;2.90;1.65;;;;;;;13.89;75.04;99841.84;5089539;28;20048;-56
2021/09/08 05:49:40;;;;;;;5.22;1.73;;;;;;;14.09;74.14;99839.19;5062055;28;20044;-52
2021/09/08 05:52:06;;;;;;;3.45;2.00;;;;;;;14.50;72.87;99837.25;5068008;28;20052;-52
2021/09/08 05:54:32;;;;;;;3.28;1.60;;;;;;;14.73;70.23;99836.16;5073582;28;20584;-50
2021/09/08 05:56:58;;;;;;;2.55;1.35;;;;;;;14.96;68.58;99843.75;5080606;28;20093;-51
2021/09/08 05:59:25;;;;;;;3.33;1.65;;;;;;;14.87;68.33;99828.47;5088127;28;20080;-51
2021/09/08 06:01:51;;;;;;;2.42;1.42;;;;;;;15.09;67.41;99838.72;5071011;28;20068;-50
2021/09/08 06:04:17;;;;;;;6.50;2.15;;;;;;;15.51;66.67;99833.94;5068690;28;20059;-54
2021/09/08 06:06:42;;;;;;;4.22;1.70;;;;;;;16.42;63.36;99828.13;5068045;28;20045;-51
2021/09/08 06:09:08;;;;;;;3.30;1.90;;;;;;;17.10;61.08;99831.25;5085807;28;20067;-54
2021/09/08 06:11:34;;;;;;;4.80;1.60;;;;;;;17.01;59.03;99829.16;5084675;28;20037;-52
2021/09/08 06:14:00;;;;;;;3.63;1.70;;;;;;;16.84;60.10;99824.88;5071332;28;20074;-52
2021/09/08 06:16:25;;;;;;;2.53;1.70;;;;;;;16.61;60.23;99825.34;5088751;28;20047;-50
2021/09/08 06:18:51;;;;;;;4.97;1.52;;;;;;;16.22;60.93;99823.16;5088160;28;20071;-47
2021/09/08 06:21:17;;;;;;;2.95;1.60;;;;;;;15.66;62.63;99825.28;5086462;28;20858;-51
2021/09/08 06:23:44;;;;;;;3.13;1.58;;;;;;;15.37;63.83;99820.69;5082892;28;20461;-48
2021/09/08 09:25:09;;;;;;;4.55;1.80;;;;;;;12.99;77.09;99749.19;5077439;28;20942;-50
2021/09/08 09:27:37;;;;;;;6.57;2.00;;;;;;;12.86;81.29;99750.63;5065635;28;20833;-54
2021/09/08 09:30:09;;;;;;;4.07;1.70;;;;;;;12.70;83.59;99742.59;5066019;28;20040;-57
2021/09/08 09:32:38;;;;;;;6.13;2.45;;;;;;;12.79;84.95;99745.72;5060476;28;20044;-53
2021/09/08 09:35:04;;;;;;;6.05;2.75;;;;;;;12.98;83.85;99746.66;5081127;28;20036;-48
2021/09/08 09:37:48;;;;;;;6.50;2.50;;;;;;;13.14;82.57;99745.94;5045367;28;20094;-47
2021/09/08 09:40:16;;;;;;;3.65;2.33;;;;;;;13.22;80.00;99743.00;5058946;28;20037;-49
2021/09/08 09:42:43;;;;;;;7.40;2.00;;;;;;;13.25;78.57;99739.38;5068502;28;20109;-51
2021/09/08 09:45:10;;;;;;;6.88;2.70;;;;;;;13.23;79.26;99728.19;5051903;28;20048;-49
2021/09/08 09:47:38;;;;;;;2.85;2.20;;;;;;;13.35;78.99;99733.69;5045312;28;20032;-54
2021/09/08 09:50:06;;;;;;;7.05;2.03;;;;;;;13.36;76.96;99745.00;5044938;28;20033;-50
2021/09/08 09:52:36;;;;;;;5.25;2.38;;;;;;;13.40;77.48;99730.88;5046833;28;20041;-49
2021/09/08 09:55:05;;;;;;;;;;;;;;;13.44;77.00;99725.47;5058087;28;20516;-50
2021/09/08 09:57:31;;;;;;;;;;;;;;;13.49;76.95;99715.66;5064222;28;19916;-48
2021/09/08 09:59:58;;;;;;;4.72;2.17;;;;;;;13.45;75.95;99713.25;5064053;28;19970;-48
2021/09/08 10:02:24;;;;;;;6.32;2.65;;;;;;;13.47;77.09;99719.25;5063397;28;20127;-46
2021/09/08 10:04:50;;;;;;;8.30;3.03;;;;;;;13.37;76.70;99713.59;5046249;28;20923;-47
2021/09/08 10:07:22;;;;;;;6.18;2.90;;;;;;;13.40;77.25;99713.44;5056865;28;20095;-48
2021/09/08 10:09:51;;;;;;;4.80;2.50;;;;;;;13.38;76.47;99710.06;5044777;28;20048;-48
2021/09/08 10:12:22;;;;;;;5.18;1.80;;;;;;;13.38;76.31;99710.06;5057276;28;20162;-51
2021/09/08 10:14:49;;;;;;;5.00;2.25;;;;;;;13.42;76.44;99719.44;5043281;28;20421;-50
2021/09/08 10:17:18;;;;;;;5.35;2.45;;;;;;;13.41;75.91;99707.31;5044877;28;20049;-47
2021/09/08 10:19:44;;;;;;;5.72;2.67;;;;;;;13.45;75.76;99700.19;5064940;28;20480;-51
2021/09/08 10:22:12;;;;;;;4.40;2.92;;;;;;;13.40;76.19;99694.31;5061965;28;20036;-50
2021/09/08 10:24:46;;;;;;;5.35;2.72;;;;;;;13.49;75.63;99701.75;5055265;28;20143;-52
2021/09/08 10:27:27;;;;;;;5.72;2.40;;;;;;;13.41;75.45;99683.78;5046915;28;20045;-48
2021/09/08 10:29:54;;;;;;;3.70;2.10;;;;;;;13.54;74.50;99707.59;5063004;28;20076;-51
2021/09/08 10:32:20;;;;;;;4.30;2.53;;;;;;;13.65;74.55;99692.28;5063233;28;20037;-50
2021/09/08 10:34:47;;;;;;;5.30;2.05;;;;;;;13.75;73.44;99677.00;5041560;28;20065;-48
2021/09/08 10:37:15;;;;;;;4.63;1.70;;;;;;;13.75;73.39;99671.78;5050333;28;20037;-49
2021/09/08 10:39:41;;;;;;;5.75;2.20;;;;;;;13.78;73.91;99677.72;5051556;28;20432;-53
2021/09/08 10:42:08;;;;;;;4.72;2.47;;;;;;;13.77;73.74;99673.41;5038211;28;20148;-54
2021/09/08 10:44:44;;;;;;;5.45;2.50;;;;;;;13.78;73.68;99658.56;5031247;28;20132;-49
2021/09/08 10:47:10;;;;;;;4.03;1.90;;;;;;;13.77;73.49;99659.47;5030489;28;20425;-53
2021/09/08 10:49:41;;;;;;;6.00;1.98;;;;;;;13.78;73.38;99666.41;5031622;28;20048;-54
2021/09/08 10:52:09;;;;;;;3.85;1.88;;;;;;;13.78;73.23;99658.56;5032090;28;20048;-51
2021/09/08 10:54:56;;;;;;;4.65;2.38;;;;;;;13.75;73.35;99654.34;5056020;28;20040;-52
2021/09/08 10:57:40;;;;;;;6.72;2.13;;;;;;;13.82;73.73;99660.09;5045319;28;20041;-54
2021/09/08 11:00:27;;;;;;;5.32;2.15;;;;;;;13.84;73.32;99655.66;5020207;28;20045;-52
2021/09/08 11:02:53;;;;;;;4.93;2.55;;;;;;;13.82;72.92;99640.06;5027276;28;20639;-50
2021/09/08 11:05:19;;;;;;;3.40;2.22;;;;;;;13.89;73.26;99643.22;5031802;28;20045;-51
2021/09/08 11:07:46;;;;;;;5.53;2.17;;;;;;;13.90;72.92;99645.78;5032238;28;20045;-54
2021/09/08 11:10:14;;;;;;;3.90;2.22;;;;;;;13.93;73.15;99639.53;5031181;28;20136;-54
2021/09/08 11:12:47;;;;;;;6.05;2.47;;;;;;;13.97;73.15;99648.94;5030423;28;20068;-50
2021/09/08 11:15:16;;;;;;;4.50;2.65;;;;;;;14.00;72.94;99640.94;5030024;28;20037;-53
2021/09/08 11:17:41;;;;;;;8.03;2.93;;;;;;;14.08;72.76;99636.16;5031862;28;20049;-51
2021/09/08 11:20:08;;;;;;;9.23;2.72;;;;;;;14.19;72.35;99636.47;5031654;28;20136;-54
2021/09/08 11:22:34;;;;;;;4.30;2.47;;;;;;;14.24;71.86;99633.63;5030272;28;20179;-53
2021/09/08 11:25:07;;;;;;;4.40;2.10;;;;;;;14.32;70.66;99640.19;5037056;28;20507;-51
2021/09/08 11:27:34;;;;;;;5.47;2.78;;;;;;;14.39;70.91;99636.34;5031409;28;20076;-53
2021/09/08 11:30:13;;;;;;;6.93;2.67;;;;;;;14.50;70.25;99627.97;5013347;28;20041;-52
2021/09/08 11:33:05;;;;;;;;;;;;;;;14.69;69.75;99641.81;5031795;28;20037;-54
2021/09/08 11:35:35;;;;;;;4.97;3.00;;;;;;;14.87;69.25;99633.91;5030165;28;19924;-54
2021/09/08 11:38:02;;;;;;;5.38;2.88;;;;;;;14.91;68.79;99619.75;5042230;28;20044;-53
2021/09/08 11:40:28;;;;;;;9.63;2.90;;;;;;;15.02;68.22;99622.66;5050656;28;20048;-54
2021/09/08 11:42:54;;;;;;;6.80;2.58;;;;;;;15.23;67.57;99631.94;5043508;28;20030;-53
2021/09/08 11:45:30;;;;;;;4.05;2.15;;;;;;;15.34;66.27;99606.00;5030588;28;20083;-53
2021/09/08 11:47:56;;;;;;;6.22;2.53;;;;;;;15.76;65.53;99622.91;5034148;28;20267;-51
2021/09/08 11:50:22;;;;;;;3.45;2.25;;;;;;;15.76;64.71;99604.56;5050648;28;20037;-53
2021/09/08 11:52:55;;;;;;;3.85;2.50;;;;;;;15.75;65.07;99619.47;5047163;28;20064;-53
2021/09/08 11:55:31;;;;;;;6.15;2.92;;;;;;;15.95;63.76;99613.94;5045436;28;20520;-53
2021/09/08 11:58:17;;;;;;;4.07;2.55;;;;;;;16.27;62.92;99619.09;5038311;28;20132;-51
2021/09/08 12:01:00;;;;;;;8.02;2.83;;;;;;;16.48;62.82;99609.97;5029473;28;20045;-53
2021/09/08 12:03:27;;;;;;;5.68;2.65;;;;;;;16.53;61.55;99605.28;5030739;28;20571;-54
2021/09/08 12:05:53;;;;;;;6.35;3.05;;;;;;;16.52;61.31;99620.19;5028932;28;20132;-52
2021/09/08 12:08:20;;;;;;;6.40;3.10;;;;;;;16.48;62.05;99616.06;5031999;28;20075;-54
2021/09/08 12:10:46;;;;;;;5.72;2.30;;;;;;;16.60;60.99;99613.66;5047948;28;20052;-52
2021/09/08 12:13:26;;;;;;;7.57;2.55;;;;;;;16.66;61.07;99623.78;5044161;28;20033;-53
2021/09/08 12:15:51;;;;;;;4.78;2.95;;;;;;;16.60;61.11;99616.28;5030394;28;20448;-53
2021/09/08 12:18:17;;;;;;;5.80;2.72;;;;;;;16.60;61.11;99611.88;5048921;28;20040;-52
2021/09/08 12:20:43;;;;;;;4.53;2.40;;;;;;;16.50;60.75;99624.66;5050300;28;20080;-50
2021/09/08 12:23:25;;;;;;;5.32;2.85;;;;;;;16.53;61.10;99608.75;5045100;28;20175;-54
2021/09/08 12:26:02;;;;;;;4.07;2.80;;;;;;;16.52;61.35;99596.56;5048393;28;20540;-57
2021/09/08 12:28:28;;;;;;;3.03;2.30;;;;;;;16.41;61.00;99598.13;5049787;28;20044;-55
2021/09/08 12:31:17;;;;;;;3.30;1.80;;;;;;;16.41;61.59;99608.63;5048762;28;20406;-54
2021/09/08 12:33:54;;;;;;;5.75;2.67;;;;;;;16.44;61.73;99608.44;5042713;28;20045;-54
2021/09/08 12:36:20;;;;;;;6.22;2.53;;;;;;;16.39;61.57;99603.47;5028191;28;20063;-55
2021/09/08 12:38:50;;;;;;;6.18;3.00;;;;;;;16.36;61.89;99598.41;5030092;28;20501;-50
2021/09/08 12:41:23;;;;;;;7.03;2.65;;;;;;;16.28;62.23;99597.16;5043931;28;20041;-54
2021/09/08 12:43:52;;;;;;;4.00;2.40;;;;;;;16.16;62.39;99592.66;5044081;28;20048;-52
2021/09/08 12:46:36;;;;;;;3.88;2.70;;;;;;;16.11;62.88;99592.94;5035638;28;20045;-52
2021/09/08 12:49:02;;;;;;;8.07;3.10;;;;;;;15.99;63.38;99588.38;5030084;28;20044;-53
2021/09/08 12:51:28;;;;;;;6.95;2.83;;;;;;;15.93;63.77;99579.09;5029973;28;20045;-51
2021/09/08 12:53:53;;;;;;;5.65;3.03;;;;;;;15.95;63.74;99576.38;5028452;28;20206;-55
2021/09/08 12:56:19;;;;;;;6.97;2.97;;;;;;;15.92;63.73;99574.78;5029765;28;20052;-51
2021/09/08 12:58:45;;;;;;;11.68;3.00;;;;;;;15.92;64.13;99584.41;5029765;28;20055;-53
2021/09/08 13:01:11;;;;;;;4.93;2.70;;;;;;;15.88;64.21;99578.50;5029867;28;20075;-50
2021/09/08 13:03:37;;;;;;;4.05;2.20;;;;;;;15.91;64.11;99583.56;5029613;28;20047;-55
2021/09/08 13:06:03;;;;;;;4.72;2.80;;;;;;;16.00;64.05;99571.72;5028600;28;20428;-53
2021/09/08 13:08:28;;;;;;;7.20;2.78;;;;;;;16.13;63.85;99585.78;5027592;28;20572;-53
2021/09/08 13:10:54;;;;;;;4.45;3.00;;;;;;;16.14;63.68;99573.53;5031215;28;20128;-51
2021/09/08 13:13:20;;;;;;;3.42;2.47;;;;;;;16.21;63.36;99575.72;5042759;28;20056;-52
2021/09/08 13:15:45;;;;;;;4.78;3.00;;;;;;;16.20;63.78;99576.63;5042387;28;20508;-52
2021/09/08 13:18:11;;;;;;;5.10;3.00;;;;;;;16.11;63.70;99569.31;5049422;28;20094;-51
2021/09/08 13:20:37;;;;;;;3.70;2.95;;;;;;;16.04;64.31;99565.34;5034888;28;20037;-54
2021/09/08 13:23:04;;;;;;;5.78;2.78;;;;;;;16.07;64.45;99575.66;5041068;28;20456;-50
2021/09/08 13:25:30;;;;;;;6.25;3.05;;;;;;;16.05;64.80;99578.38;5028970;28;20045;-51
2021/09/08 13:27:56;;;;;;;6.95;2.60;;;;;;;15.99;64.33;99576.13;5029347;28;20049;-56
2021/09/08 13:30:21;;;;;;;4.97;2.90;;;;;;;15.97;64.72;99574.50;5029032;28;20060;-55
2021/09/08 13:32:47;;;;;;;5.10;3.20;;;;;;;15.96;64.79;99572.84;5029429;28;20053;-55
2021/09/08 13:35:13;;;;;;;5.88;3.35;;;;;;;16.07;64.38;99571.25;5047741;28;20048;-51
2021/09/08 13:37:38;;;;;;;7.80;3.28;;;;;;;16.07;64.48;99568.63;5036181;28;20055;-53
2021/09/08 13:40:05;;;;;;;10.57;3.40;;;;;;;16.07;64.69;99562.53;5041242;28;20582;-53
2021/09/08 13:42:30;;;;;;;5.65;3.47;;;;;;;16.05;64.92;99557.41;5043523;28;20076;-53
2021/09/08 13:44:56;;;;;;;5.20;3.20;;;;;;;16.08;65.13;99566.84;5048638;28;20033;-56
2021/09/08 13:47:22;;;;;;;5.60;2.72;;;;;;;16.06;65.21;99555.63;5040820;28;20041;-56
2021/09/08 13:49:48;;;;;;;7.15;2.95;;;;;;;16.02;65.27;99552.31;5011380;28;20046;-56
2021/09/08 13:52:13;;;;;;;10.98;3.42;;;;;;;15.89;65.45;99548.75;5028336;28;20513;-52
2021/09/08 13:54:40;;;;;;;8.98;3.53;;;;;;;15.93;66.06;99557.25;5037309;28;20045;-57
2021/09/08 13:57:06;;;;;;;9.27;3.67;;;;;;;15.87;66.33;99555.84;5038223;28;20570;-49
2021/09/08 13:59:32;;;;;;;5.70;3.30;;;;;;;15.89;66.32;99567.09;5063779;28;20041;-51
2021/09/08 14:01:58;;;;;;;6.25;2.70;;;;;;;15.86;66.52;99566.44;5028898;28;20554;-50
2021/09/08 14:04:23;;;;;;;4.45;2.83;;;;;;;15.78;66.97;99556.38;5030522;28;20033;-60
2021/09/08 14:06:49;;;;;;;4.43;2.55;;;;;;;15.72;67.55;99556.72;5037484;28;20041;-55
2021/09/08 14:09:15;;;;;;;5.88;3.47;;;;;;;15.72;67.79;99576.84;5032560;28;20095;-58
2021/09/08 14:11:40;;;;;;;6.53;3.67;;;;;;;15.66;67.89;99559.69;5032274;28;20037;-58
2021/09/08 14:14:06;;;;;;;6.82;4.10;;;;;;;15.68;68.79;99569.19;5046097;28;20524;-62
2021/09/08 14:16:32;;;;;;;8.95;4.00;;;;;;;15.65;69.30;99579.81;5047366;28;20052;-50
2021/09/08 14:18:57;;;;;;;7.90;4.20;;;;;;;15.57;70.48;99570.72;5040959;28;20034;-51
2021/09/08 14:21:23;;;;;;;7.68;4.05;;;;;;;15.43;70.83;99560.13;5032409;28;20091;-58
2021/09/08 14:23:48;;;;;;;5.95;3.63;;;;;;;15.50;71.51;99566.69;5031997;28;20092;-57
2021/09/08 14:26:17;;;;;;;8.07;4.25;;;;;;;15.51;71.25;99564.03;5031975;28;20041;-54
2021/09/08 14:28:43;;;;;;;7.97;4.22;;;;;;;15.57;71.42;99562.84;5040625;28;20060;-54
2021/09/08 14:31:09;;;;;;;8.00;3.80;;;;;;;15.52;71.33;99564.88;5031319;28;20513;-47
2021/09/08 14:33:34;;;;;;;9.57;4.57;;;;;;;15.53;71.78;99570.06;5031473;28;20524;-52